sensor_id;sensor_type;location;lat;lon;timestamp;temperature;humidity
8475;DHT22;4274;52.012;8.448;2023-04-03T00:01:19;2.50;99.90
8475;DHT22;4274;52.012;8.448;2023-04-03T00:03:45;2.50;99.90
8475;DHT22;4274;52.012;8.448;2023-04-03T00:06:11;2.40;99.90
8475;DHT22;4274;52.012;8.448;2023-04-03T00:08:38;2.40;99.90
8475;DHT22;4274;52.012;8.448;2023-04-03T00:11:05;2.40;99.90
8475;DHT22;4274;52.012;8.448;2023-04-03T00:13:31;2.30;99.90
8475;DHT22;4274;52.012;8.448;2023-04-03T00:15:57;2.30;99.90
8475;DHT22;4274;52.012;8.448;2023-04-03T00:18:23;2.20;99.90
8475;DHT22;4274;52.012;8.448;2023-04-03T00:20:49;2.20;99.90
8475;DHT22;4274;52.012;8.448;2023-04-03T00:23:14;2.20;99.90
8475;DHT22;4274;52.012;8.448;2023-04-03T00:25:40;2.10;99.90
8475;DHT22;4274;52.012;8.448;2023-04-03T00:28:06;2.10;99.90
8475;DHT22;4274;52.012;8.448;2023-04-03T00:30:32;2.10;99.90
8475;DHT22;4274;52.012;8.448;2023-04-03T00:32:58;2.00;99.90
8475;DHT22;4274;52.012;8.448;2023-04-03T00:35:24;2.00;99.90
8475;DHT22;4274;52.012;8.448;2023-04-03T00:37:52;2.00;99.90
8475;DHT22;4274;52.012;8.448;2023-04-03T00:40:18;2.00;99.90
8475;DHT22;4274;52.012;8.448;2023-04-03T00:42:47;2.00;99.90
8475;DHT22;4274;52.012;8.448;2023-04-03T00:45:28;2.00;99.90
8475;DHT22;4274;52.012;8.448;2023-04-03T00:47:54;1.90;99.90
8475;DHT22;4274;52.012;8.448;2023-04-03T00:50:21;1.90;99.90
8475;DHT22;4274;52.012;8.448;2023-04-03T00:52:47;1.90;99.90
8475;DHT22;4274;52.012;8.448;2023-04-03T00:55:15;1.80;99.90
8475;DHT22;4274;52.012;8.448;2023-04-03T00:57:41;1.70;99.90
8475;DHT22;4274;52.012;8.448;2023-04-03T01:00:10;1.80;99.90
8475;DHT22;4274;52.012;8.448;2023-04-03T01:02:37;1.80;99.90
8475;DHT22;4274;52.012;8.448;2023-04-03T01:05:04;1.70;99.90
8475;DHT22;4274;52.012;8.448;2023-04-03T01:07:30;1.70;99.90
8475;DHT22;4274;52.012;8.448;2023-04-03T01:10:00;1.70;99.90
8475;DHT22;4274;52.012;8.448;2023-04-03T01:12:34;1.60;99.90
8475;DHT22;4274;52.012;8.448;2023-04-03T01:15:06;1.60;99.90
8475;DHT22;4274;52.012;8.448;2023-04-03T01:17:45;1.60;99.90
8475;DHT22;4274;52.012;8.448;2023-04-03T01:25:40;1.60;99.90
8475;DHT22;4274;52.012;8.448;2023-04-03T01:28:08;1.60;99.90
8475;DHT22;4274;52.012;8.448;2023-04-03T01:30:55;1.50;99.90
8475;DHT22;4274;52.012;8.448;2023-04-03T01:33:23;1.50;99.90
8475;DHT22;4274;52.012;8.448;2023-04-03T01:35:49;1.40;99.90
8475;DHT22;4274;52.012;8.448;2023-04-03T01:38:14;1.40;99.90
8475;DHT22;4274;52.012;8.448;2023-04-03T01:40:41;1.30;99.90
8475;DHT22;4274;52.012;8.448;2023-04-03T01:43:07;1.40;99.90
8475;DHT22;4274;52.012;8.448;2023-04-03T01:45:32;1.30;99.90
8475;DHT22;4274;52.012;8.448;2023-04-03T01:47:58;1.20;99.90
8475;DHT22;4274;52.012;8.448;2023-04-03T01:50:24;1.20;99.90
8475;DHT22;4274;52.012;8.448;2023-04-03T01:52:49;1.20;99.90
8475;DHT22;4274;52.012;8.448;2023-04-03T01:55:15;1.20;99.90
8475;DHT22;4274;52.012;8.448;2023-04-03T01:57:41;1.10;99.90
8475;DHT22;4274;52.012;8.448;2023-04-03T02:00:07;1.10;99.90
8475;DHT22;4274;52.012;8.448;2023-04-03T02:02:33;1.00;99.90
8475;DHT22;4274;52.012;8.448;2023-04-03T02:04:58;1.00;99.90
8475;DHT22;4274;52.012;8.448;2023-04-03T02:07:24;1.00;99.90
8475;DHT22;4274;52.012;8.448;2023-04-03T02:09:49;1.00;99.90
8475;DHT22;4274;52.012;8.448;2023-04-03T02:12:15;0.90;99.90
8475;DHT22;4274;52.012;8.448;2023-04-03T02:14:41;0.90;99.90
8475;DHT22;4274;52.012;8.448;2023-04-03T02:17:06;0.80;99.90
8475;DHT22;4274;52.012;8.448;2023-04-03T02:19:34;0.80;99.90
8475;DHT22;4274;52.012;8.448;2023-04-03T02:22:04;0.80;99.90
8475;DHT22;4274;52.012;8.448;2023-04-03T02:24:30;0.70;99.90
8475;DHT22;4274;52.012;8.448;2023-04-03T02:26:56;0.70;99.90
8475;DHT22;4274;52.012;8.448;2023-04-03T02:29:21;0.70;99.90
8475;DHT22;4274;52.012;8.448;2023-04-03T02:31:47;0.70;99.90
8475;DHT22;4274;52.012;8.448;2023-04-03T02:34:13;0.60;99.90
8475;DHT22;4274;52.012;8.448;2023-04-03T02:36:38;0.60;99.90
8475;DHT22;4274;52.012;8.448;2023-04-03T02:39:04;0.60;99.90
8475;DHT22;4274;52.012;8.448;2023-04-03T02:41:30;0.60;99.90
8475;DHT22;4274;52.012;8.448;2023-04-03T02:44:02;0.60;99.90
8475;DHT22;4274;52.012;8.448;2023-04-03T02:46:27;0.60;99.90
8475;DHT22;4274;52.012;8.448;2023-04-03T02:48:53;0.60;99.90
8475;DHT22;4274;52.012;8.448;2023-04-03T02:51:18;0.50;99.90
8475;DHT22;4274;52.012;8.448;2023-04-03T02:53:44;0.50;99.90
8475;DHT22;4274;52.012;8.448;2023-04-03T02:56:10;0.50;99.90
8475;DHT22;4274;52.012;8.448;2023-04-03T02:58:35;0.50;99.90
8475;DHT22;4274;52.012;8.448;2023-04-03T03:01:01;0.40;99.90
8475;DHT22;4274;52.012;8.448;2023-04-03T03:03:27;0.40;99.90
8475;DHT22;4274;52.012;8.448;2023-04-03T03:06:04;0.30;99.90
8475;DHT22;4274;52.012;8.448;2023-04-03T03:08:29;0.30;99.90
8475;DHT22;4274;52.012;8.448;2023-04-03T03:10:55;0.20;99.90
8475;DHT22;4274;52.012;8.448;2023-04-03T03:13:21;0.20;99.90
8475;DHT22;4274;52.012;8.448;2023-04-03T03:15:46;0.20;99.90
8475;DHT22;4274;52.012;8.448;2023-04-03T03:18:12;0.10;99.90
8475;DHT22;4274;52.012;8.448;2023-04-03T03:20:37;0.10;99.90
8475;DHT22;4274;52.012;8.448;2023-04-03T03:23:03;0.00;99.90
8475;DHT22;4274;52.012;8.448;2023-04-03T03:25:29;0.00;99.90
8475;DHT22;4274;52.012;8.448;2023-04-03T03:27:54;0.00;99.90
8475;DHT22;4274;52.012;8.448;2023-04-03T03:30:20;0.00;99.90
8475;DHT22;4274;52.012;8.448;2023-04-03T03:35:15;-0.10;99.90
8475;DHT22;4274;52.012;8.448;2023-04-03T03:37:41;-0.10;99.90
8475;DHT22;4274;52.012;8.448;2023-04-03T03:40:07;-0.10;99.90
8475;DHT22;4274;52.012;8.448;2023-04-03T03:42:32;-0.10;99.90
8475;DHT22;4274;52.012;8.448;2023-04-03T03:44:58;-0.20;99.90
8475;DHT22;4274;52.012;8.448;2023-04-03T03:47:24;-0.20;99.90
8475;DHT22;4274;52.012;8.448;2023-04-03T03:49:49;-0.30;99.90
8475;DHT22;4274;52.012;8.448;2023-04-03T03:52:15;-0.30;99.90
8475;DHT22;4274;52.012;8.448;2023-04-03T03:54:40;-0.30;99.90
8475;DHT22;4274;52.012;8.448;2023-04-03T03:57:06;-0.30;99.90
8475;DHT22;4274;52.012;8.448;2023-04-03T03:59:32;-0.30;99.90
8475;DHT22;4274;52.012;8.448;2023-04-03T04:01:57;-0.30;99.90
8475;DHT22;4274;52.012;8.448;2023-04-03T04:04:23;-0.30;99.90
8475;DHT22;4274;52.012;8.448;2023-04-03T04:06:48;-0.30;99.90
8475;DHT22;4274;52.012;8.448;2023-04-03T04:09:14;-0.30;99.90
8475;DHT22;4274;52.012;8.448;2023-04-03T04:11:39;-0.30;99.90
8475;DHT22;4274;52.012;8.448;2023-04-03T04:14:06;-0.40;99.90
8475;DHT22;4274;52.012;8.448;2023-04-03T04:16:32;-0.30;99.90
8475;DHT22;4274;52.012;8.448;2023-04-03T04:18:57;-0.30;99.90
8475;DHT22;4274;52.012;8.448;2023-04-03T04:21:23;-0.30;99.90
8475;DHT22;4274;52.012;8.448;2023-04-03T04:23:49;-0.30;99.90
8475;DHT22;4274;52.012;8.448;2023-04-03T04:26:14;-0.40;99.90
8475;DHT22;4274;52.012;8.448;2023-04-03T04:28:40;-0.40;99.90
8475;DHT22;4274;52.012;8.448;2023-04-03T04:31:05;-0.50;99.90
8475;DHT22;4274;52.012;8.448;2023-04-03T04:33:31;-0.50;99.90
8475;DHT22;4274;52.012;8.448;2023-04-03T04:35:56;-0.60;99.90
8475;DHT22;4274;52.012;8.448;2023-04-03T04:38:22;-0.60;99.90
8475;DHT22;4274;52.012;8.448;2023-04-03T04:40:48;-0.60;99.90
8475;DHT22;4274;52.012;8.448;2023-04-03T04:43:14;-0.60;99.90
8475;DHT22;4274;52.012;8.448;2023-04-03T04:45:40;-0.70;99.90
8475;DHT22;4274;52.012;8.448;2023-04-03T04:48:06;-0.60;99.90
8475;DHT22;4274;52.012;8.448;2023-04-03T04:50:32;-0.70;99.90
8475;DHT22;4274;52.012;8.448;2023-04-03T04:52:57;-0.70;99.90
8475;DHT22;4274;52.012;8.448;2023-04-03T04:55:23;-0.70;99.90
8475;DHT22;4274;52.012;8.448;2023-04-03T04:57:48;-0.60;99.90
8475;DHT22;4274;52.012;8.448;2023-04-03T05:00:14;-0.60;99.90
8475;DHT22;4274;52.012;8.448;2023-04-03T05:02:40;-0.60;99.90
8475;DHT22;4274;52.012;8.448;2023-04-03T05:05:06;-0.60;99.90
8475;DHT22;4274;52.012;8.448;2023-04-03T05:07:32;-0.60;99.90
8475;DHT22;4274;52.012;8.448;2023-04-03T05:09:57;-0.70;99.90
8475;DHT22;4274;52.012;8.448;2023-04-03T05:12:23;-0.70;99.90
8475;DHT22;4274;52.012;8.448;2023-04-03T05:14:49;-0.70;99.90
8475;DHT22;4274;52.012;8.448;2023-04-03T05:17:14;-0.70;99.90
8475;DHT22;4274;52.012;8.448;2023-04-03T05:19:40;-0.70;99.90
8475;DHT22;4274;52.012;8.448;2023-04-03T05:22:06;-0.70;99.90
8475;DHT22;4274;52.012;8.448;2023-04-03T05:24:31;-0.70;99.90
8475;DHT22;4274;52.012;8.448;2023-04-03T05:26:57;-0.70;99.90
8475;DHT22;4274;52.012;8.448;2023-04-03T05:29:22;-0.70;99.90
8475;DHT22;4274;52.012;8.448;2023-04-03T05:31:51;-0.70;99.90
8475;DHT22;4274;52.012;8.448;2023-04-03T05:34:16;-0.70;99.90
8475;DHT22;4274;52.012;8.448;2023-04-03T05:36:42;-0.70;99.90
8475;DHT22;4274;52.012;8.448;2023-04-03T05:39:08;-0.70;99.90
8475;DHT22;4274;52.012;8.448;2023-04-03T05:41:34;-0.70;99.90
8475;DHT22;4274;52.012;8.448;2023-04-03T05:43:59;-0.60;99.90
8475;DHT22;4274;52.012;8.448;2023-04-03T05:46:25;-0.60;99.90
8475;DHT22;4274;52.012;8.448;2023-04-03T05:48:51;-0.60;99.90
8475;DHT22;4274;52.012;8.448;2023-04-03T05:51:22;-0.50;99.90
8475;DHT22;4274;52.012;8.448;2023-04-03T05:53:50;-0.50;99.90
8475;DHT22;4274;52.012;8.448;2023-04-03T05:56:17;-0.40;99.90
8475;DHT22;4274;52.012;8.448;2023-04-03T05:58:43;-0.30;99.90
8475;DHT22;4274;52.012;8.448;2023-04-03T06:01:08;-0.30;99.90
8475;DHT22;4274;52.012;8.448;2023-04-03T06:03:34;-0.20;99.90
8475;DHT22;4274;52.012;8.448;2023-04-03T06:06:02;0.00;99.90
8475;DHT22;4274;52.012;8.448;2023-04-03T06:08:28;0.20;99.90
8475;DHT22;4274;52.012;8.448;2023-04-03T06:10:54;0.60;99.90
8475;DHT22;4274;52.012;8.448;2023-04-03T06:13:20;1.10;99.90
8475;DHT22;4274;52.012;8.448;2023-04-03T06:15:45;1.70;99.90
8475;DHT22;4274;52.012;8.448;2023-04-03T06:18:12;2.20;99.90
8475;DHT22;4274;52.012;8.448;2023-04-03T06:20:37;2.70;99.90
8475;DHT22;4274;52.012;8.448;2023-04-03T06:23:03;3.10;99.90
8475;DHT22;4274;52.012;8.448;2023-04-03T06:25:28;3.20;99.90
8475;DHT22;4274;52.012;8.448;2023-04-03T06:27:54;3.30;99.90
8475;DHT22;4274;52.012;8.448;2023-04-03T06:30:21;3.50;99.90
8475;DHT22;4274;52.012;8.448;2023-04-03T06:32:47;3.60;99.90
8475;DHT22;4274;52.012;8.448;2023-04-03T06:35:12;3.80;99.90
8475;DHT22;4274;52.012;8.448;2023-04-03T06:37:38;3.90;99.90
8475;DHT22;4274;52.012;8.448;2023-04-03T06:40:04;4.10;99.90
8475;DHT22;4274;52.012;8.448;2023-04-03T06:42:30;4.20;99.90
8475;DHT22;4274;52.012;8.448;2023-04-03T06:44:56;4.20;99.90
8475;DHT22;4274;52.012;8.448;2023-04-03T06:47:21;4.00;99.90
8475;DHT22;4274;52.012;8.448;2023-04-03T06:49:47;4.00;99.90
8475;DHT22;4274;52.012;8.448;2023-04-03T06:52:13;4.10;99.90
8475;DHT22;4274;52.012;8.448;2023-04-03T06:54:39;4.40;99.90
8475;DHT22;4274;52.012;8.448;2023-04-03T06:57:06;4.70;99.90
8475;DHT22;4274;52.012;8.448;2023-04-03T06:59:31;4.90;99.90
8475;DHT22;4274;52.012;8.448;2023-04-03T07:01:57;5.10;99.90
8475;DHT22;4274;52.012;8.448;2023-04-03T07:04:25;5.60;99.90
8475;DHT22;4274;52.012;8.448;2023-04-03T07:06:50;5.90;99.90
8475;DHT22;4274;52.012;8.448;2023-04-03T07:09:17;6.20;99.90
8475;DHT22;4274;52.012;8.448;2023-04-03T07:11:44;6.70;99.90
8475;DHT22;4274;52.012;8.448;2023-04-03T07:14:09;7.20;99.90
8475;DHT22;4274;52.012;8.448;2023-04-03T07:16:35;7.70;99.90
8475;DHT22;4274;52.012;8.448;2023-04-03T07:19:01;8.10;99.90
8475;DHT22;4274;52.012;8.448;2023-04-03T07:21:28;8.50;99.90
8475;DHT22;4274;52.012;8.448;2023-04-03T07:23:54;8.40;99.90
8475;DHT22;4274;52.012;8.448;2023-04-03T07:26:20;8.30;99.90
8475;DHT22;4274;52.012;8.448;2023-04-03T07:28:48;8.60;99.90
8475;DHT22;4274;52.012;8.448;2023-04-03T07:31:14;8.80;99.20
8475;DHT22;4274;52.012;8.448;2023-04-03T07:33:41;9.10;98.00
8475;DHT22;4274;52.012;8.448;2023-04-03T07:36:07;9.20;97.00
8475;DHT22;4274;52.012;8.448;2023-04-03T07:38:34;9.00;95.40
8475;DHT22;4274;52.012;8.448;2023-04-03T07:41:00;8.80;95.80
8475;DHT22;4274;52.012;8.448;2023-04-03T07:43:26;8.70;95.90
8475;DHT22;4274;52.012;8.448;2023-04-03T07:45:52;9.00;97.40
8475;DHT22;4274;52.012;8.448;2023-04-03T07:48:23;9.60;95.70
8475;DHT22;4274;52.012;8.448;2023-04-03T07:50:50;9.60;93.80
8475;DHT22;4274;52.012;8.448;2023-04-03T07:53:15;9.30;92.80
8475;DHT22;4274;52.012;8.448;2023-04-03T07:55:41;9.20;93.50
8475;DHT22;4274;52.012;8.448;2023-04-03T07:58:11;9.30;93.20
8475;DHT22;4274;52.012;8.448;2023-04-03T08:00:37;9.50;92.10
8475;DHT22;4274;52.012;8.448;2023-04-03T08:03:04;9.60;92.10
8475;DHT22;4274;52.012;8.448;2023-04-03T08:05:30;9.70;91.00
8475;DHT22;4274;52.012;8.448;2023-04-03T08:07:55;9.80;91.10
8475;DHT22;4274;52.012;8.448;2023-04-03T08:10:21;10.10;91.50
8475;DHT22;4274;52.012;8.448;2023-04-03T08:12:47;10.20;89.10
8475;DHT22;4274;52.012;8.448;2023-04-03T08:15:13;10.10;87.80
8475;DHT22;4274;52.012;8.448;2023-04-03T08:17:38;9.60;88.90
8475;DHT22;4274;52.012;8.448;2023-04-03T08:20:05;9.20;90.00
8475;DHT22;4274;52.012;8.448;2023-04-03T08:22:32;8.80;89.00
8475;DHT22;4274;52.012;8.448;2023-04-03T08:24:58;8.60;90.10
8475;DHT22;4274;52.012;8.448;2023-04-03T08:27:24;8.50;90.40
8475;DHT22;4274;52.012;8.448;2023-04-03T08:29:49;8.60;90.50
8475;DHT22;4274;52.012;8.448;2023-04-03T08:32:15;8.80;90.80
8475;DHT22;4274;52.012;8.448;2023-04-03T08:34:41;9.00;89.30
8475;DHT22;4274;52.012;8.448;2023-04-03T08:37:06;8.90;89.50
8475;DHT22;4274;52.012;8.448;2023-04-03T08:39:32;8.90;88.90
8475;DHT22;4274;52.012;8.448;2023-04-03T08:41:59;8.90;90.20
8475;DHT22;4274;52.012;8.448;2023-04-03T08:44:38;9.10;90.30
8475;DHT22;4274;52.012;8.448;2023-04-03T08:50:07;9.70;88.80
8475;DHT22;4274;52.012;8.448;2023-04-03T08:52:55;9.50;87.30
8475;DHT22;4274;52.012;8.448;2023-04-03T08:55:31;9.20;90.20
8475;DHT22;4274;52.012;8.448;2023-04-03T08:58:03;9.40;89.30
8475;DHT22;4274;52.012;8.448;2023-04-03T09:00:39;9.60;89.10
8475;DHT22;4274;52.012;8.448;2023-04-03T09:03:12;9.70;87.40
8475;DHT22;4274;52.012;8.448;2023-04-03T09:10:44;10.20;88.90
8475;DHT22;4274;52.012;8.448;2023-04-03T09:13:35;10.50;88.40
8475;DHT22;4274;52.012;8.448;2023-04-03T09:16:20;10.70;86.20
8475;DHT22;4274;52.012;8.448;2023-04-03T09:18:57;10.50;86.90
8475;DHT22;4274;52.012;8.448;2023-04-03T09:21:39;10.20;86.40
8475;DHT22;4274;52.012;8.448;2023-04-03T09:24:11;10.50;88.40
8475;DHT22;4274;52.012;8.448;2023-04-03T09:27:00;11.20;89.20
8475;DHT22;4274;52.012;8.448;2023-04-03T09:29:28;11.90;84.50
8475;DHT22;4274;52.012;8.448;2023-04-03T09:31:58;12.30;81.70
8475;DHT22;4274;52.012;8.448;2023-04-03T09:34:32;12.10;80.20
8475;DHT22;4274;52.012;8.448;2023-04-03T09:37:01;11.70;81.80
8475;DHT22;4274;52.012;8.448;2023-04-03T09:39:52;11.90;82.50
8475;DHT22;4274;52.012;8.448;2023-04-03T09:42:23;12.30;82.40
8475;DHT22;4274;52.012;8.448;2023-04-03T09:44:57;12.60;80.10
8475;DHT22;4274;52.012;8.448;2023-04-03T09:52:42;12.30;80.20
8475;DHT22;4274;52.012;8.448;2023-04-03T09:55:14;12.90;80.50
8475;DHT22;4274;52.012;8.448;2023-04-03T09:57:40;13.30;79.60
8475;DHT22;4274;52.012;8.448;2023-04-03T10:00:23;13.40;78.60
8475;DHT22;4274;52.012;8.448;2023-04-03T10:02:54;13.40;77.50
8475;DHT22;4274;52.012;8.448;2023-04-03T10:05:39;13.50;76.00
8475;DHT22;4274;52.012;8.448;2023-04-03T10:10:45;14.00;78.20
8475;DHT22;4274;52.012;8.448;2023-04-03T10:13:13;14.30;75.00
8475;DHT22;4274;52.012;8.448;2023-04-03T10:16:02;14.20;76.70
8475;DHT22;4274;52.012;8.448;2023-04-03T10:21:32;13.60;77.60
8475;DHT22;4274;52.012;8.448;2023-04-03T10:26:59;12.00;79.30
8475;DHT22;4274;52.012;8.448;2023-04-03T10:37:24;10.60;79.40
8475;DHT22;4274;52.012;8.448;2023-04-03T10:39:59;9.90;80.50
8475;DHT22;4274;52.012;8.448;2023-04-03T10:48:10;8.40;83.30
8475;DHT22;4274;52.012;8.448;2023-04-03T10:50:48;8.90;83.20
8475;DHT22;4274;52.012;8.448;2023-04-03T10:53:31;9.20;81.60
8475;DHT22;4274;52.012;8.448;2023-04-03T10:58:44;9.10;79.70
8475;DHT22;4274;52.012;8.448;2023-04-03T11:01:36;9.50;80.60
8475;DHT22;4274;52.012;8.448;2023-04-03T11:04:06;9.90;80.40
8475;DHT22;4274;52.012;8.448;2023-04-03T11:06:41;10.10;79.70
8475;DHT22;4274;52.012;8.448;2023-04-03T11:09:22;10.70;77.70
8475;DHT22;4274;52.012;8.448;2023-04-03T11:11:53;11.40;79.40
8475;DHT22;4274;52.012;8.448;2023-04-03T11:14:32;12.30;78.60
8475;DHT22;4274;52.012;8.448;2023-04-03T11:17:20;13.70;75.80
8475;DHT22;4274;52.012;8.448;2023-04-03T11:22:32;13.80;72.80
8475;DHT22;4274;52.012;8.448;2023-04-03T11:27:45;10.80;73.50
8475;DHT22;4274;52.012;8.448;2023-04-03T11:33:09;9.10;79.40
8475;DHT22;4274;52.012;8.448;2023-04-03T11:35:45;8.50;79.00
8475;DHT22;4274;52.012;8.448;2023-04-03T11:38:26;8.90;79.90
8475;DHT22;4274;52.012;8.448;2023-04-03T11:40:55;10.00;80.90
8475;DHT22;4274;52.012;8.448;2023-04-03T11:50:59;13.90;72.80
8475;DHT22;4274;52.012;8.448;2023-04-03T11:53:38;13.90;71.10
8475;DHT22;4274;52.012;8.448;2023-04-03T12:01:51;11.90;72.50
8475;DHT22;4274;52.012;8.448;2023-04-03T12:04:22;11.80;74.40
8475;DHT22;4274;52.012;8.448;2023-04-03T12:06:50;12.40;75.00
8475;DHT22;4274;52.012;8.448;2023-04-03T12:11:47;12.90;72.90
8475;DHT22;4274;52.012;8.448;2023-04-03T12:14:15;12.60;73.90
8475;DHT22;4274;52.012;8.448;2023-04-03T12:16:44;12.00;73.80
8475;DHT22;4274;52.012;8.448;2023-04-03T12:34:54;10.00;77.10
8475;DHT22;4274;52.012;8.448;2023-04-03T12:42:51;10.50;75.10
8475;DHT22;4274;52.012;8.448;2023-04-03T12:45:25;10.40;75.00
8475;DHT22;4274;52.012;8.448;2023-04-03T12:47:54;9.70;77.00
8475;DHT22;4274;52.012;8.448;2023-04-03T12:50:23;9.10;78.00
8475;DHT22;4274;52.012;8.448;2023-04-03T12:53:05;8.80;80.10
8475;DHT22;4274;52.012;8.448;2023-04-03T12:55:32;8.80;80.50
8475;DHT22;4274;52.012;8.448;2023-04-03T12:58:12;8.70;80.30
8475;DHT22;4274;52.012;8.448;2023-04-03T13:00:38;8.60;80.60
8475;DHT22;4274;52.012;8.448;2023-04-03T13:03:06;8.60;82.50
8475;DHT22;4274;52.012;8.448;2023-04-03T13:05:38;8.90;82.30
8475;DHT22;4274;52.012;8.448;2023-04-03T13:08:10;9.10;82.80
8475;DHT22;4274;52.012;8.448;2023-04-03T13:10:55;9.10;79.60
8475;DHT22;4274;52.012;8.448;2023-04-03T13:13:23;8.90;82.60
8475;DHT22;4274;52.012;8.448;2023-04-03T13:15:49;8.80;80.70
8475;DHT22;4274;52.012;8.448;2023-04-03T13:18:33;8.50;80.70
8475;DHT22;4274;52.012;8.448;2023-04-03T13:21:11;8.30;82.00
8475;DHT22;4274;52.012;8.448;2023-04-03T13:23:40;8.10;81.40
8475;DHT22;4274;52.012;8.448;2023-04-03T13:26:09;8.10;81.80
8475;DHT22;4274;52.012;8.448;2023-04-03T13:28:35;8.50;81.00
8475;DHT22;4274;52.012;8.448;2023-04-03T13:33:35;10.00;79.10
8475;DHT22;4274;52.012;8.448;2023-04-03T13:36:18;10.60;77.00
8475;DHT22;4274;52.012;8.448;2023-04-03T13:38:44;10.90;76.10
8475;DHT22;4274;52.012;8.448;2023-04-03T13:41:33;10.90;77.80
8475;DHT22;4274;52.012;8.448;2023-04-03T13:46:47;10.90;76.00
8475;DHT22;4274;52.012;8.448;2023-04-03T13:49:36;10.80;76.80
8475;DHT22;4274;52.012;8.448;2023-04-03T13:55:03;11.00;73.40
8475;DHT22;4274;52.012;8.448;2023-04-03T13:57:36;11.00;73.90
8475;DHT22;4274;52.012;8.448;2023-04-03T14:00:39;10.70;72.60
8475;DHT22;4274;52.012;8.448;2023-04-03T14:03:16;9.90;76.40
8475;DHT22;4274;52.012;8.448;2023-04-03T14:05:43;9.50;76.90
8475;DHT22;4274;52.012;8.448;2023-04-03T14:08:10;9.40;79.00
8475;DHT22;4274;52.012;8.448;2023-04-03T14:10:36;9.40;77.90
8475;DHT22;4274;52.012;8.448;2023-04-03T14:13:02;9.00;78.10
8475;DHT22;4274;52.012;8.448;2023-04-03T14:15:30;8.60;78.90
8475;DHT22;4274;52.012;8.448;2023-04-03T14:17:57;8.60;78.90
8475;DHT22;4274;52.012;8.448;2023-04-03T14:20:25;8.60;79.40
8475;DHT22;4274;52.012;8.448;2023-04-03T14:22:51;8.80;77.40
8475;DHT22;4274;52.012;8.448;2023-04-03T14:25:18;8.80;82.20
8475;DHT22;4274;52.012;8.448;2023-04-03T14:27:47;9.00;82.70
8475;DHT22;4274;52.012;8.448;2023-04-03T14:30:32;9.30;79.40
8475;DHT22;4274;52.012;8.448;2023-04-03T14:32:58;9.30;79.00
8475;DHT22;4274;52.012;8.448;2023-04-03T14:35:25;9.30;80.40
8475;DHT22;4274;52.012;8.448;2023-04-03T14:37:52;9.30;80.20
8475;DHT22;4274;52.012;8.448;2023-04-03T14:40:23;9.20;79.90
8475;DHT22;4274;52.012;8.448;2023-04-03T14:42:50;9.00;80.40
8475;DHT22;4274;52.012;8.448;2023-04-03T14:45:16;8.80;80.00
8475;DHT22;4274;52.012;8.448;2023-04-03T14:47:54;8.40;79.80
8475;DHT22;4274;52.012;8.448;2023-04-03T14:50:23;8.20;82.10
8475;DHT22;4274;52.012;8.448;2023-04-03T14:52:51;8.30;82.80
8475;DHT22;4274;52.012;8.448;2023-04-03T14:55:20;8.50;82.00
8475;DHT22;4274;52.012;8.448;2023-04-03T14:57:46;8.60;80.90
8475;DHT22;4274;52.012;8.448;2023-04-03T15:00:18;8.60;80.80
8475;DHT22;4274;52.012;8.448;2023-04-03T15:02:43;8.30;80.10
8475;DHT22;4274;52.012;8.448;2023-04-03T15:05:11;8.20;80.40
8475;DHT22;4274;52.012;8.448;2023-04-03T15:07:39;8.10;79.40
8475;DHT22;4274;52.012;8.448;2023-04-03T15:10:16;8.00;80.10
8475;DHT22;4274;52.012;8.448;2023-04-03T15:12:43;7.90;79.80
8475;DHT22;4274;52.012;8.448;2023-04-03T15:15:09;7.80;79.70
8475;DHT22;4274;52.012;8.448;2023-04-03T15:17:36;7.70;80.60
8475;DHT22;4274;52.012;8.448;2023-04-03T15:20:02;7.60;80.70
8475;DHT22;4274;52.012;8.448;2023-04-03T15:22:28;7.40;81.80
8475;DHT22;4274;52.012;8.448;2023-04-03T15:24:54;7.50;81.80
8475;DHT22;4274;52.012;8.448;2023-04-03T15:27:19;7.60;81.80
8475;DHT22;4274;52.012;8.448;2023-04-03T15:29:45;7.70;80.70
8475;DHT22;4274;52.012;8.448;2023-04-03T15:32:12;7.70;81.00
8475;DHT22;4274;52.012;8.448;2023-04-03T15:34:38;7.70;83.00
8475;DHT22;4274;52.012;8.448;2023-04-03T15:37:04;7.80;81.50
8475;DHT22;4274;52.012;8.448;2023-04-03T15:39:30;7.80;81.60
8475;DHT22;4274;52.012;8.448;2023-04-03T15:41:56;7.80;81.60
8475;DHT22;4274;52.012;8.448;2023-04-03T15:44:24;7.80;80.80
8475;DHT22;4274;52.012;8.448;2023-04-03T15:46:50;7.60;81.50
8475;DHT22;4274;52.012;8.448;2023-04-03T15:49:17;7.50;81.60
8475;DHT22;4274;52.012;8.448;2023-04-03T15:51:43;7.30;81.80
8475;DHT22;4274;52.012;8.448;2023-04-03T15:54:08;7.20;82.30
8475;DHT22;4274;52.012;8.448;2023-04-03T15:56:34;7.10;84.80
8475;DHT22;4274;52.012;8.448;2023-04-03T15:59:00;7.00;82.80
8475;DHT22;4274;52.012;8.448;2023-04-03T16:01:25;6.90;83.00
8475;DHT22;4274;52.012;8.448;2023-04-03T16:03:51;7.00;83.60
8475;DHT22;4274;52.012;8.448;2023-04-03T16:06:18;7.00;84.10
8475;DHT22;4274;52.012;8.448;2023-04-03T16:08:44;7.10;82.20
8475;DHT22;4274;52.012;8.448;2023-04-03T16:11:10;7.20;83.00
8475;DHT22;4274;52.012;8.448;2023-04-03T16:13:36;7.20;84.60
8475;DHT22;4274;52.012;8.448;2023-04-03T16:16:02;7.40;85.50
8475;DHT22;4274;52.012;8.448;2023-04-03T16:18:29;7.50;86.80
8475;DHT22;4274;52.012;8.448;2023-04-03T16:20:55;7.60;84.00
8475;DHT22;4274;52.012;8.448;2023-04-03T16:23:21;7.60;83.60
8475;DHT22;4274;52.012;8.448;2023-04-03T16:25:47;7.50;81.90
8475;DHT22;4274;52.012;8.448;2023-04-03T16:28:14;7.40;81.40
8475;DHT22;4274;52.012;8.448;2023-04-03T16:30:41;7.30;81.90
8475;DHT22;4274;52.012;8.448;2023-04-03T16:33:07;7.20;81.80
8475;DHT22;4274;52.012;8.448;2023-04-03T16:35:34;7.10;82.80
8475;DHT22;4274;52.012;8.448;2023-04-03T16:37:59;7.00;82.40
8475;DHT22;4274;52.012;8.448;2023-04-03T16:40:25;6.90;82.80
8475;DHT22;4274;52.012;8.448;2023-04-03T16:42:50;6.80;82.70
8475;DHT22;4274;52.012;8.448;2023-04-03T16:45:16;6.70;82.30
8475;DHT22;4274;52.012;8.448;2023-04-03T16:47:42;6.70;82.70
8475;DHT22;4274;52.012;8.448;2023-04-03T16:50:08;6.70;82.70
8475;DHT22;4274;52.012;8.448;2023-04-03T16:52:33;6.70;82.30
8475;DHT22;4274;52.012;8.448;2023-04-03T16:54:59;6.60;83.00
8475;DHT22;4274;52.012;8.448;2023-04-03T16:57:25;6.60;82.90
8475;DHT22;4274;52.012;8.448;2023-04-03T16:59:52;6.60;84.20
8475;DHT22;4274;52.012;8.448;2023-04-03T17:02:18;6.60;85.00
8475;DHT22;4274;52.012;8.448;2023-04-03T17:04:43;6.50;84.80
8475;DHT22;4274;52.012;8.448;2023-04-03T17:07:09;6.60;84.10
8475;DHT22;4274;52.012;8.448;2023-04-03T17:09:35;6.50;83.10
8475;DHT22;4274;52.012;8.448;2023-04-03T17:12:01;6.50;83.40
8475;DHT22;4274;52.012;8.448;2023-04-03T17:14:27;6.40;82.50
8475;DHT22;4274;52.012;8.448;2023-04-03T17:16:52;6.40;82.80
8475;DHT22;4274;52.012;8.448;2023-04-03T17:19:18;6.30;83.70
8475;DHT22;4274;52.012;8.448;2023-04-03T17:21:44;6.30;83.30
8475;DHT22;4274;52.012;8.448;2023-04-03T17:24:12;6.30;83.60
8475;DHT22;4274;52.012;8.448;2023-04-03T17:26:39;6.20;83.90
8475;DHT22;4274;52.012;8.448;2023-04-03T17:29:06;6.20;84.10
8475;DHT22;4274;52.012;8.448;2023-04-03T17:31:32;6.10;84.30
8475;DHT22;4274;52.012;8.448;2023-04-03T17:33:58;6.10;84.30
8475;DHT22;4274;52.012;8.448;2023-04-03T17:36:30;6.10;84.90
8475;DHT22;4274;52.012;8.448;2023-04-03T17:38:55;6.00;85.40
8475;DHT22;4274;52.012;8.448;2023-04-03T17:41:21;6.00;85.30
8475;DHT22;4274;52.012;8.448;2023-04-03T17:43:48;5.90;85.90
8475;DHT22;4274;52.012;8.448;2023-04-03T17:46:14;5.90;85.70
8475;DHT22;4274;52.012;8.448;2023-04-03T17:48:41;5.80;86.00
8475;DHT22;4274;52.012;8.448;2023-04-03T17:51:10;5.80;85.70
8475;DHT22;4274;52.012;8.448;2023-04-03T17:53:36;5.70;86.30
8475;DHT22;4274;52.012;8.448;2023-04-03T17:56:13;5.60;86.10
8475;DHT22;4274;52.012;8.448;2023-04-03T17:58:39;5.60;86.60